Time;durP1;ratioP1;P1;durP2;ratioP2;P2;SDS_P1;SDS_P2;PMS_P1;PMS_P2;Temp;Humidity;BMP_temperature;BMP_pressure;BME280_temperature;BME280_humidity;BME280_pressure;Samples;Min_cycle;Max_cycle;Signal;HPM_P1;HPM_P2
2022/08/28 00:01:34;;;;;;;0.00;0.00;;;13.10;99.90;;;;;;5113586;28;20071;-81
2022/08/28 00:04:01;;;;;;;0.30;0.30;;;13.10;99.90;;;;;;5096853;28;20050;-81
2022/08/28 00:06:27;;;;;;;0.00;0.00;;;13.10;99.90;;;;;;5113656;28;20048;-81
2022/08/28 00:08:52;;;;;;;0.10;0.10;;;13.10;99.90;;;;;;5096360;28;20108;-80
2022/08/28 00:11:19;;;;;;;0.00;0.00;;;13.10;99.90;;;;;;5113475;28;20040;-80
2022/08/28 00:13:45;;;;;;;0.00;0.00;;;13.10;99.90;;;;;;5113689;28;20047;-81
2022/08/28 00:16:11;;;;;;;0.15;0.15;;;13.10;99.90;;;;;;5097079;28;20048;-80
2022/08/28 00:18:37;;;;;;;0.00;0.00;;;13.00;99.90;;;;;;5096530;28;20123;-81
2022/08/28 00:21:03;;;;;;;0.15;0.00;;;13.00;99.90;;;;;;5096306;28;20039;-80
2022/08/28 00:23:31;;;;;;;0.00;0.00;;;12.90;99.90;;;;;;5096017;28;20483;-80
2022/08/28 00:25:58;;;;;;;0.00;0.00;;;12.90;99.90;;;;;;5096234;28;20058;-80
2022/08/28 00:28:24;;;;;;;0.00;0.00;;;12.80;99.90;;;;;;5096277;28;20035;-80
2022/08/28 00:30:52;;;;;;;0.25;0.22;;;12.90;99.90;;;;;;5096380;28;20044;-80
2022/08/28 00:33:21;;;;;;;0.00;0.00;;;12.80;99.90;;;;;;5113417;28;20097;-81
2022/08/28 00:35:48;;;;;;;0.00;0.00;;;12.90;99.90;;;;;;5113327;28;20098;-80
2022/08/28 00:38:17;;;;;;;0.00;0.00;;;12.80;99.90;;;;;;5096400;28;20048;-80
2022/08/28 00:40:44;;;;;;;0.13;0.00;;;12.70;99.90;;;;;;5113128;28;20048;-80
2022/08/28 00:43:36;;;;;;;0.00;0.00;;;12.70;99.90;;;;;;5096594;28;20071;-80
2022/08/28 00:46:05;;;;;;;0.00;0.00;;;12.70;99.90;;;;;;5096319;28;20082;-80
2022/08/28 00:48:31;;;;;;;0.00;0.00;;;12.60;99.90;;;;;;5113365;28;20093;-81
2022/08/28 00:53:42;;;;;;;0.00;0.00;;;12.60;99.90;;;;;;5113767;28;20111;-80
2022/08/28 00:56:11;;;;;;;0.00;0.00;;;12.60;99.90;;;;;;5095578;28;20055;-80
2022/08/28 00:58:39;;;;;;;0.20;0.20;;;12.60;99.90;;;;;;5095871;28;20092;-80
2022/08/28 01:01:04;;;;;;;0.00;0.00;;;12.60;99.90;;;;;;5113058;28;20044;-80
2022/08/28 01:03:30;;;;;;;0.25;0.25;;;12.60;99.90;;;;;;5097132;28;20092;-80
2022/08/28 01:05:56;;;;;;;1.75;0.10;;;12.60;99.90;;;;;;5100048;28;20387;-80
2022/08/28 01:08:22;;;;;;;0.00;0.00;;;12.60;99.90;;;;;;5100094;28;20047;-80
2022/08/28 01:10:53;;;;;;;0.00;0.00;;;12.60;99.90;;;;;;5099675;28;20463;-80
2022/08/28 01:13:21;;;;;;;0.00;0.00;;;12.50;99.90;;;;;;5117321;28;20094;-80
2022/08/28 01:15:48;;;;;;;0.00;0.00;;;12.50;99.90;;;;;;5099724;28;20039;-80
2022/08/28 01:18:15;;;;;;;0.00;0.00;;;12.50;99.90;;;;;;5099919;28;20066;-80
2022/08/28 01:21:02;;;;;;;0.00;0.00;;;12.40;99.90;;;;;;5099204;28;20039;-81
2022/08/28 01:23:50;;;;;;;0.00;0.00;;;12.40;99.90;;;;;;5082992;28;20048;-80
2022/08/28 01:26:16;;;;;;;0.00;0.00;;;12.40;99.90;;;;;;5116706;28;20043;-81
2022/08/28 01:28:42;;;;;;;0.00;0.00;;;12.40;99.90;;;;;;5099703;28;20050;-80
2022/08/28 01:31:10;;;;;;;0.00;0.00;;;12.40;99.90;;;;;;5116750;28;20043;-80
2022/08/28 01:33:36;;;;;;;0.00;0.00;;;12.50;99.90;;;;;;5099390;28;20426;-81
2022/08/28 01:36:03;;;;;;;0.00;0.00;;;12.40;99.90;;;;;;5099476;28;20052;-80
2022/08/28 01:38:28;;;;;;;0.00;0.00;;;12.40;99.90;;;;;;5116429;28;20082;-80
2022/08/28 01:40:58;;;;;;;0.03;0.03;;;12.40;99.90;;;;;;5098963;28;20450;-81
2022/08/28 01:43:25;;;;;;;0.00;0.00;;;12.30;99.90;;;;;;5115233;28;20107;-81
2022/08/28 01:45:54;;;;;;;0.00;0.00;;;12.30;99.90;;;;;;5097415;28;20046;-81
2022/08/28 01:48:23;;;;;;;0.00;0.00;;;12.20;99.90;;;;;;5097617;28;20180;-81
2022/08/28 01:50:49;;;;;;;0.00;0.00;;;12.20;99.90;;;;;;5097749;28;20051;-81
2022/08/28 01:53:17;;;;;;;0.00;0.00;;;12.30;99.90;;;;;;5114697;28;20087;-81
2022/08/28 01:55:43;;;;;;;0.00;0.00;;;12.30;99.90;;;;;;5097499;28;20051;-81
2022/08/28 01:58:09;;;;;;;0.00;0.00;;;12.30;99.90;;;;;;5097416;28;20095;-81
2022/08/28 02:00:36;;;;;;;0.00;0.00;;;12.30;99.90;;;;;;5098060;28;20096;-80
2022/08/28 02:03:02;;;;;;;0.00;0.00;;;12.20;99.90;;;;;;5099062;28;20043;-80
2022/08/28 02:05:31;;;;;;;0.00;0.00;;;12.20;99.90;;;;;;5098655;28;20047;-81
2022/08/28 02:07:58;;;;;;;0.00;0.00;;;12.20;99.90;;;;;;5115885;28;20055;-81
2022/08/28 02:10:25;;;;;;;0.00;0.00;;;12.10;99.90;;;;;;5115176;28;20052;-81
2022/08/28 02:12:52;;;;;;;0.00;0.00;;;12.20;99.90;;;;;;5098806;28;20496;-81
2022/08/28 02:15:24;;;;;;;0.00;0.00;;;12.10;99.90;;;;;;5099002;28;20043;-81
2022/08/28 02:17:50;;;;;;;0.00;0.00;;;12.10;99.90;;;;;;5116114;28;20040;-81
2022/08/28 02:20:16;;;;;;;0.00;0.00;;;12.10;99.90;;;;;;5098671;28;20054;-81
2022/08/28 02:22:42;;;;;;;0.00;0.00;;;12.10;99.90;;;;;;5115680;28;20457;-81
2022/08/28 02:25:09;;;;;;;0.00;0.00;;;12.10;99.90;;;;;;5115446;28;20066;-81
2022/08/28 02:27:35;;;;;;;0.00;0.00;;;12.00;99.90;;;;;;5098803;28;20089;-81
2022/08/28 02:30:02;;;;;;;0.38;0.00;;;12.10;99.90;;;;;;5116547;28;20046;-81
2022/08/28 02:32:28;;;;;;;0.10;0.10;;;12.10;99.90;;;;;;5116160;28;20043;-81
2022/08/28 02:34:54;;;;;;;0.00;0.00;;;12.00;99.90;;;;;;5098756;28;20398;-81
2022/08/28 02:37:22;;;;;;;0.00;0.00;;;12.00;99.90;;;;;;5115468;28;20126;-81
2022/08/28 02:39:48;;;;;;;0.00;0.00;;;12.00;99.90;;;;;;5115638;28;20056;-80
2022/08/28 02:42:14;;;;;;;0.00;0.00;;;11.90;99.90;;;;;;5115658;28;20054;-81
2022/08/28 02:44:40;;;;;;;0.80;0.28;;;11.80;99.90;;;;;;5115579;28;20047;-81
2022/08/28 02:47:06;;;;;;;0.00;0.00;;;11.80;99.90;;;;;;5098512;28;20043;-81
2022/08/28 02:49:32;;;;;;;0.00;0.00;;;11.80;99.90;;;;;;5098731;28;20043;-81
2022/08/28 02:51:57;;;;;;;0.00;0.00;;;11.80;99.90;;;;;;5098027;28;20048;-81
2022/08/28 02:54:25;;;;;;;0.10;0.10;;;11.80;99.90;;;;;;5098148;28;20036;-81
2022/08/28 02:56:51;;;;;;;0.00;0.00;;;11.70;99.90;;;;;;5097730;28;20572;-81
2022/08/28 02:59:18;;;;;;;0.28;0.25;;;11.70;99.90;;;;;;5097434;28;20051;-81
2022/08/28 03:01:43;;;;;;;0.00;0.00;;;11.70;99.90;;;;;;5098001;28;20094;-81
2022/08/28 03:04:11;;;;;;;0.00;0.00;;;11.70;99.90;;;;;;5097847;28;20500;-81
2022/08/28 03:06:37;;;;;;;0.22;0.00;;;11.70;99.90;;;;;;5097717;28;20104;-81
2022/08/28 03:09:04;;;;;;;0.00;0.00;;;11.70;99.90;;;;;;5114915;28;20047;-81
2022/08/28 03:11:30;;;;;;;0.00;0.00;;;11.70;99.90;;;;;;5097802;28;20044;-80
2022/08/28 03:13:55;;;;;;;1.25;0.28;;;11.80;99.90;;;;;;5097272;28;20101;-80
2022/08/28 03:16:23;;;;;;;0.00;0.00;;;11.80;99.90;;;;;;5097348;28;20036;-81
2022/08/28 03:18:50;;;;;;;0.00;0.00;;;11.80;99.90;;;;;;5114474;28;20047;-81
2022/08/28 03:21:15;;;;;;;0.25;0.25;;;11.70;99.90;;;;;;5114135;28;20042;-81
2022/08/28 03:23:44;;;;;;;0.00;0.00;;;11.70;99.90;;;;;;5097612;28;20036;-81
2022/08/28 03:26:18;;;;;;;0.00;0.00;;;11.60;99.90;;;;;;5097575;28;20054;-81
2022/08/28 03:28:50;;;;;;;0.00;0.00;;;11.60;99.90;;;;;;5097335;28;20082;-81
2022/08/28 03:31:19;;;;;;;0.00;0.00;;;12.10;99.90;;;;;;5097591;28;20054;-81
2022/08/28 03:33:45;;;;;;;0.00;0.00;;;11.80;99.90;;;;;;5097250;28;20150;-81
2022/08/28 03:36:20;;;;;;;0.00;0.00;;;11.60;99.90;;;;;;5097721;28;20058;-81
2022/08/28 03:38:46;;;;;;;0.00;0.00;;;11.80;99.90;;;;;;5097387;28;20156;-81
2022/08/28 03:41:14;;;;;;;0.00;0.00;;;11.60;99.90;;;;;;5096742;28;20527;-80
2022/08/28 03:43:41;;;;;;;0.00;0.00;;;11.60;99.90;;;;;;5113848;28;20483;-81
2022/08/28 03:46:11;;;;;;;0.00;0.00;;;11.50;99.90;;;;;;5113764;28;20040;-81
2022/08/28 03:48:37;;;;;;;0.00;0.00;;;11.60;99.90;;;;;;5114400;28;20039;-81
2022/08/28 03:51:09;;;;;;;0.00;0.00;;;11.60;99.90;;;;;;5096619;28;20304;-81
2022/08/28 03:53:36;;;;;;;0.00;0.00;;;11.60;99.90;;;;;;5113662;28;20479;-81
2022/08/28 03:56:09;;;;;;;0.00;0.00;;;11.60;99.90;;;;;;5113951;28;20054;-81
2022/08/28 03:58:35;;;;;;;0.00;0.00;;;11.60;99.90;;;;;;5112977;28;20395;-81
2022/08/28 04:01:01;;;;;;;0.00;0.00;;;11.50;99.90;;;;;;5112608;28;20043;-81
2022/08/28 04:03:27;;;;;;;0.00;0.00;;;11.50;99.90;;;;;;5113579;28;20032;-81
2022/08/28 04:05:52;;;;;;;0.00;0.00;;;11.50;99.90;;;;;;5095439;28;20411;-81
2022/08/28 04:08:19;;;;;;;0.52;0.10;;;11.40;99.90;;;;;;5095878;28;20040;-81
2022/08/28 04:10:46;;;;;;;0.00;0.00;;;11.50;99.90;;;;;;5113110;28;20051;-81
2022/08/28 04:13:14;;;;;;;0.00;0.00;;;11.40;99.90;;;;;;5095751;28;20054;-81
2022/08/28 04:15:41;;;;;;;0.00;0.00;;;11.30;99.90;;;;;;5113318;28;20051;-81
2022/08/28 04:18:08;;;;;;;0.00;0.00;;;11.40;99.90;;;;;;5095537;28;20085;-81
2022/08/28 04:20:33;;;;;;;0.00;0.00;;;11.30;99.90;;;;;;5095869;28;20138;-81
2022/08/28 04:23:01;;;;;;;0.00;0.00;;;11.30;99.90;;;;;;5112599;28;20083;-81
2022/08/28 04:25:27;;;;;;;0.00;0.00;;;11.30;99.90;;;;;;5112679;28;20376;-81
2022/08/28 04:27:52;;;;;;;0.43;0.20;;;11.30;99.90;;;;;;5095698;28;20047;-81
2022/08/28 04:30:18;;;;;;;0.00;0.00;;;11.30;99.90;;;;;;5095659;28;20055;-81
2022/08/28 04:32:46;;;;;;;0.00;0.00;;;11.30;99.90;;;;;;5112799;28;20046;-81
2022/08/28 04:35:13;;;;;;;0.10;0.10;;;11.30;99.90;;;;;;5112617;28;20048;-81
2022/08/28 04:37:40;;;;;;;0.35;0.35;;;11.30;99.90;;;;;;5111432;28;20490;-81
2022/08/28 04:40:08;;;;;;;0.00;0.00;;;11.30;99.90;;;;;;5095410;28;20395;-81
2022/08/28 04:42:38;;;;;;;0.80;0.35;;;11.30;99.90;;;;;;5095718;28;20059;-81
2022/08/28 04:45:05;;;;;;;0.00;0.00;;;11.40;99.90;;;;;;5094926;28;20475;-81
2022/08/28 04:47:37;;;;;;;0.03;0.00;;;11.30;99.90;;;;;;5112340;28;20048;-81
2022/08/28 04:50:04;;;;;;;0.00;0.00;;;11.30;99.90;;;;;;5095673;28;20039;-81
2022/08/28 04:52:30;;;;;;;0.00;0.00;;;11.30;99.90;;;;;;5095126;28;20052;-81
2022/08/28 04:54:56;;;;;;;0.00;0.00;;;11.30;99.90;;;;;;5112256;28;20040;-81
2022/08/28 04:57:22;;;;;;;0.00;0.00;;;11.30;99.90;;;;;;5095527;28;20051;-81
2022/08/28 04:59:51;;;;;;;0.00;0.00;;;11.30;99.90;;;;;;5028775;28;2370706;-80
2022/08/28 05:02:16;;;;;;;0.00;0.00;;;11.30;99.90;;;;;;5096474;28;20047;-81
2022/08/28 05:04:42;;;;;;;0.00;0.00;;;11.30;99.90;;;;;;5113332;28;20501;-81
2022/08/28 05:07:10;;;;;;;0.00;0.00;;;11.30;99.90;;;;;;5113241;28;20092;-81
2022/08/28 05:09:36;;;;;;;0.20;0.17;;;11.30;99.90;;;;;;5112882;28;20043;-81
2022/08/28 05:12:03;;;;;;;2.20;0.38;;;11.30;99.90;;;;;;5096174;28;20092;-81
2022/08/28 05:14:30;;;;;;;0.00;0.00;;;11.30;99.90;;;;;;5096515;28;20440;-81
2022/08/28 05:16:56;;;;;;;0.00;0.00;;;11.30;99.90;;;;;;5096005;28;20043;-81
2022/08/28 05:19:23;;;;;;;0.00;0.00;;;11.40;99.90;;;;;;5113228;28;20122;-81
2022/08/28 05:21:53;;;;;;;0.00;0.00;;;11.30;99.90;;;;;;5096056;28;20436;-80
2022/08/28 05:24:21;;;;;;;0.10;0.10;;;11.30;99.90;;;;;;5113930;28;20126;-81
2022/08/28 05:26:47;;;;;;;0.00;0.00;;;11.30;99.90;;;;;;5096038;28;20044;-81
2022/08/28 05:29:13;;;;;;;0.00;0.00;;;11.30;99.90;;;;;;5095532;28;20489;-81
2022/08/28 05:31:41;;;;;;;0.05;0.05;;;11.40;99.90;;;;;;5095667;28;20051;-81
2022/08/28 05:34:07;;;;;;;0.00;0.00;;;11.40;99.90;;;;;;5112991;28;20050;-80
2022/08/28 05:36:36;;;;;;;1.35;0.22;;;11.40;99.90;;;;;;5095814;28;20039;-81
2022/08/28 05:39:04;;;;;;;0.20;0.10;;;11.50;99.90;;;;;;5096549;28;20046;-81
2022/08/28 05:41:30;;;;;;;0.22;0.00;;;11.50;99.90;;;;;;5112854;28;20043;-81
2022/08/28 05:44:02;;;;;;;0.10;0.10;;;11.50;99.90;;;;;;5095703;28;20517;-82
2022/08/28 05:46:31;;;;;;;0.00;0.00;;;11.60;99.90;;;;;;5112999;28;20055;-82
2022/08/28 05:48:59;;;;;;;0.00;0.00;;;11.70;99.90;;;;;;5112981;28;20046;-83
2022/08/28 05:51:25;;;;;;;0.00;0.00;;;11.70;99.90;;;;;;5099304;28;20055;-82
2022/08/28 05:53:56;;;;;;;1.02;0.32;;;11.80;99.90;;;;;;5099298;28;20142;-82
2022/08/28 05:56:31;;;;;;;0.00;0.00;;;11.80;99.90;;;;;;5099504;28;20054;-82
2022/08/28 05:58:59;;;;;;;0.00;0.00;;;11.80;99.90;;;;;;5116295;28;20116;-82
2022/08/28 06:01:28;;;;;;;0.00;0.00;;;11.90;99.90;;;;;;5097343;28;20475;-82
2022/08/28 06:04:00;;;;;;;0.00;0.00;;;11.90;99.90;;;;;;5098503;28;20457;-82
2022/08/28 06:06:29;;;;;;;0.00;0.00;;;11.90;99.90;;;;;;5098658;28;20078;-82
2022/08/28 06:09:01;;;;;;;0.00;0.00;;;11.90;99.90;;;;;;5112374;28;20040;-83
2022/08/28 06:11:28;;;;;;;0.00;0.00;;;12.00;99.90;;;;;;5099437;28;20044;-83
2022/08/28 06:13:54;;;;;;;0.00;0.00;;;12.10;99.90;;;;;;5116241;28;20044;-83
2022/08/28 06:16:19;;;;;;;0.00;0.00;;;12.20;99.90;;;;;;5116494;28;20047;-82
2022/08/28 06:18:45;;;;;;;0.00;0.00;;;12.30;99.90;;;;;;5099788;28;20040;-81
2022/08/28 06:21:14;;;;;;;0.00;0.00;;;12.40;99.90;;;;;;5115990;28;20506;-80
2022/08/28 06:23:40;;;;;;;0.03;0.00;;;12.40;99.90;;;;;;5099518;28;20047;-81
2022/08/28 06:26:06;;;;;;;0.00;0.00;;;12.50;99.90;;;;;;5115819;28;20066;-80
2022/08/28 06:28:32;;;;;;;0.00;0.00;;;12.50;99.90;;;;;;5098535;28;20480;-80
2022/08/28 06:31:01;;;;;;;0.00;0.00;;;12.60;99.90;;;;;;5098499;28;20043;-80
2022/08/28 06:33:27;;;;;;;0.00;0.00;;;12.70;99.90;;;;;;5116350;28;20120;-80
2022/08/28 06:35:54;;;;;;;0.00;0.00;;;12.70;99.90;;;;;;5098575;28;20484;-80
2022/08/28 06:38:23;;;;;;;0.00;0.00;;;12.80;99.90;;;;;;5098979;28;20096;-80
2022/08/28 06:40:52;;;;;;;0.00;0.00;;;13.00;99.90;;;;;;5115592;28;20040;-80
2022/08/28 06:43:21;;;;;;;0.00;0.00;;;13.00;99.90;;;;;;5115656;28;20051;-80
2022/08/28 06:45:48;;;;;;;0.00;0.00;;;13.10;99.90;;;;;;5098095;28;20051;-80
2022/08/28 06:48:16;;;;;;;0.00;0.00;;;13.20;99.90;;;;;;5098801;28;20105;-80
2022/08/28 06:50:45;;;;;;;0.00;0.00;;;13.40;99.90;;;;;;5098715;28;20055;-80
2022/08/28 06:53:13;;;;;;;0.00;0.00;;;13.50;99.90;;;;;;5098164;28;20089;-80
2022/08/28 06:55:39;;;;;;;0.00;0.00;;;13.90;99.90;;;;;;5098030;28;20080;-80
2022/08/28 06:58:06;;;;;;;0.10;0.10;;;14.70;99.90;;;;;;5114365;28;20090;-80
2022/08/28 07:00:33;;;;;;;0.00;0.00;;;15.90;99.90;;;;;;5097604;28;20054;-80
2022/08/28 07:02:59;;;;;;;0.00;0.00;;;17.10;99.90;;;;;;5098085;28;20043;-80
2022/08/28 07:05:25;;;;;;;0.00;0.00;;;18.20;99.90;;;;;;5098074;28;20505;-80
2022/08/28 07:07:51;;;;;;;0.00;0.00;;;18.80;99.90;;;;;;5114341;28;20047;-80
2022/08/28 07:10:17;;;;;;;2.30;0.28;;;19.10;99.90;;;;;;5097178;28;20088;-80
2022/08/28 07:12:43;;;;;;;0.00;0.00;;;19.40;99.90;;;;;;5114557;28;20051;-80
2022/08/28 07:15:10;;;;;;;0.00;0.00;;;19.40;99.90;;;;;;5097345;28;20054;-80
2022/08/28 07:17:37;;;;;;;0.00;0.00;;;19.30;99.90;;;;;;5097958;28;20047;-80
2022/08/28 07:20:06;;;;;;;0.00;0.00;;;19.30;99.90;;;;;;5096840;28;20101;-81
2022/08/28 07:22:32;;;;;;;0.00;0.00;;;19.70;99.90;;;;;;5097721;28;20055;-81
2022/08/28 07:25:04;;;;;;;0.00;0.00;;;19.90;99.90;;;;;;5114383;28;20066;-80
2022/08/28 07:27:30;;;;;;;0.10;0.10;;;19.90;99.90;;;;;;5097086;28;20096;-81
2022/08/28 07:29:57;;;;;;;0.13;0.13;;;19.90;99.90;;;;;;5114161;28;20040;-80
2022/08/28 07:32:23;;;;;;;0.00;0.00;;;19.90;99.90;;;;;;5097512;28;20082;-81
2022/08/28 07:34:49;;;;;;;0.32;0.15;;;20.10;99.90;;;;;;5096950;28;20051;-81
2022/08/28 07:37:16;;;;;;;0.00;0.00;;;20.00;99.90;;;;;;5097049;28;20043;-81
2022/08/28 07:39:43;;;;;;;0.00;0.00;;;19.90;99.90;;;;;;5097292;28;20539;-82
2022/08/28 07:42:09;;;;;;;0.20;0.20;;;19.90;99.90;;;;;;5097672;28;20052;-82
2022/08/28 07:44:50;;;;;;;0.30;0.00;;;20.00;99.90;;;;;;5097311;28;20047;-81
2022/08/28 07:47:17;;;;;;;0.00;0.00;;;19.90;99.90;;;;;;5097480;28;20044;-80
2022/08/28 07:49:43;;;;;;;0.00;0.00;;;19.90;99.90;;;;;;5097118;28;20512;-81
2022/08/28 07:52:11;;;;;;;0.00;0.00;;;19.80;99.90;;;;;;5113773;28;20395;-81
2022/08/28 07:54:39;;;;;;;0.00;0.00;;;19.60;99.90;;;;;;5096860;28;20043;-81
2022/08/28 07:57:08;;;;;;;3.03;0.47;;;19.30;99.90;;;;;;5111821;28;20044;-81
2022/08/28 07:59:35;;;;;;;0.00;0.00;;;19.10;99.90;;;;;;5093415;28;20117;-81
2022/08/28 08:02:02;;;;;;;0.00;0.00;;;18.80;99.90;;;;;;5093504;28;20434;-81
2022/08/28 08:04:28;;;;;;;0.00;0.00;;;18.70;99.90;;;;;;5076635;28;20048;-81
2022/08/28 08:06:53;;;;;;;0.00;0.00;;;18.50;99.90;;;;;;5076564;28;20586;-81
2022/08/28 08:09:19;;;;;;;0.00;0.00;;;18.50;99.90;;;;;;5075891;28;20052;-81
2022/08/28 08:11:46;;;;;;;0.05;0.00;;;18.40;99.90;;;;;;5076464;28;20475;-81
2022/08/28 08:14:12;;;;;;;1.33;0.00;;;18.50;99.90;;;;;;5075920;28;20044;-81
2022/08/28 08:16:46;;;;;;;1.17;0.20;;;18.50;99.90;;;;;;5100925;28;20079;-81
2022/08/28 08:19:13;;;;;;;0.05;0.00;;;18.50;99.90;;;;;;5104731;28;20056;-81
2022/08/28 08:21:44;;;;;;;0.30;0.30;;;18.50;99.90;;;;;;5074816;28;20411;-81
2022/08/28 08:24:11;;;;;;;0.00;0.00;;;18.50;99.90;;;;;;5074218;28;20109;-81
2022/08/28 08:26:44;;;;;;;0.00;0.00;;;18.60;99.90;;;;;;5091515;28;20083;-81
2022/08/28 08:29:11;;;;;;;0.00;0.00;;;18.70;99.90;;;;;;5073696;28;20059;-81
2022/08/28 08:31:38;;;;;;;0.00;0.00;;;18.80;99.90;;;;;;5085734;28;20111;-82
2022/08/28 08:34:05;;;;;;;0.93;0.22;;;18.80;99.90;;;;;;5084089;28;20052;-82
2022/08/28 08:36:33;;;;;;;0.03;0.00;;;18.80;99.90;;;;;;5077094;28;20078;-81
2022/08/28 08:38:59;;;;;;;0.00;0.00;;;18.70;99.90;;;;;;5077520;28;20052;-83
2022/08/28 08:41:49;;;;;;;0.00;0.00;;;18.60;99.90;;;;;;5111333;28;20189;-82
2022/08/28 08:44:22;;;;;;;0.00;0.00;;;18.60;99.90;;;;;;5093740;28;20075;-83
2022/08/28 08:47:09;;;;;;;0.73;0.20;;;18.50;99.90;;;;;;5094028;28;20055;-84
2022/08/28 08:50:15;;;;;;;0.00;0.00;;;18.60;99.90;;;;;;5093712;28;20466;-83
2022/08/28 08:53:18;;;;;;;0.17;0.17;;;18.70;99.90;;;;;;5000024;28;20061;-83
2022/08/28 08:55:49;;;;;;;0.00;0.00;;;18.90;99.90;;;;;;4996290;28;20061;-83
2022/08/28 08:58:40;;;;;;;0.00;0.00;;;18.90;99.90;;;;;;5001842;28;20060;-83
2022/08/28 09:01:35;;;;;;;0.75;0.30;;;19.10;99.90;;;;;;5026696;28;20052;-82
2022/08/28 09:04:45;;;;;;;0.00;0.00;;;19.30;99.90;;;;;;5032669;28;20057;-82
2022/08/28 09:07:22;;;;;;;0.00;0.00;;;19.40;99.90;;;;;;5016778;28;20052;-82
2022/08/28 09:09:53;;;;;;;0.00;0.00;;;19.60;99.90;;;;;;5017528;28;20049;-81
2022/08/28 09:12:25;;;;;;;0.13;0.00;;;19.70;99.90;;;;;;5017691;28;20061;-82
2022/08/28 09:15:07;;;;;;;0.00;0.00;;;19.90;99.90;;;;;;5017998;28;20096;-82
2022/08/28 09:18:06;;;;;;;0.00;0.00;;;20.20;99.90;;;;;;5017031;28;20096;-83
2022/08/28 09:20:32;;;;;;;0.00;0.00;;;20.40;99.50;;;;;;4971663;28;20059;-82
2022/08/28 09:22:58;;;;;;;0.00;0.00;;;20.60;99.90;;;;;;4934984;29;20557;-82
2022/08/28 09:25:54;;;;;;;0.00;0.00;;;20.70;98.80;;;;;;4939050;29;20059;-81
2022/08/28 09:28:33;;;;;;;0.00;0.00;;;21.00;99.00;;;;;;4984079;28;20053;-81
2022/08/28 09:31:12;;;;;;;0.03;0.03;;;21.20;97.50;;;;;;5002253;28;20107;-81
2022/08/28 09:33:40;;;;;;;0.25;0.25;;;21.40;97.60;;;;;;5018662;28;20505;-81
2022/08/28 09:36:30;;;;;;;0.00;0.00;;;21.60;97.10;;;;;;5018665;28;20053;-81
2022/08/28 09:39:17;;;;;;;0.00;0.00;;;21.70;96.50;;;;;;5018790;28;20060;-81
2022/08/28 09:45:17;;;;;;;0.00;0.00;;;21.80;95.90;;;;;;5018307;28;20049;-81
2022/08/28 09:47:49;;;;;;;1.27;0.28;;;21.40;94.90;;;;;;4979576;28;20185;-81
2022/08/28 09:50:15;;;;;;;0.00;0.00;;;21.00;95.00;;;;;;4979139;28;20050;-81
2022/08/28 09:52:40;;;;;;;0.00;0.00;;;20.70;94.70;;;;;;4979315;28;20154;-81
2022/08/28 09:55:11;;;;;;;0.05;0.00;;;20.60;95.80;;;;;;4979159;28;20050;-81
2022/08/28 09:57:42;;;;;;;0.00;0.00;;;20.60;95.80;;;;;;4994674;28;20148;-81
2022/08/28 10:00:08;;;;;;;0.00;0.00;;;20.60;95.60;;;;;;5001503;28;20125;-81
2022/08/28 10:03:03;;;;;;;0.00;0.00;;;20.60;95.60;;;;;;5018068;28;20175;-81
2022/08/28 10:05:40;;;;;;;0.00;0.00;;;20.40;95.90;;;;;;5002561;28;20053;-81
2022/08/28 10:08:23;;;;;;;0.00;0.00;;;20.20;95.50;;;;;;5001793;28;20049;-81
2022/08/28 10:10:57;;;;;;;0.10;0.05;;;20.10;96.50;;;;;;5001897;28;20067;-81
2022/08/28 10:13:33;;;;;;;2.92;0.52;;;20.20;97.40;;;;;;5001512;28;20053;-81
2022/08/28 10:16:08;;;;;;;0.00;0.00;;;20.20;96.90;;;;;;5001477;28;20052;-81
2022/08/28 10:19:04;;;;;;;0.00;0.00;;;20.20;96.30;;;;;;5034569;28;20394;-81
2022/08/28 10:21:55;;;;;;;0.00;0.00;;;20.20;96.20;;;;;;5034259;28;20547;-81
2022/08/28 10:24:33;;;;;;;0.00;0.00;;;20.10;95.80;;;;;;5059712;28;20052;-81
2022/08/28 10:27:34;;;;;;;0.00;0.00;;;20.00;95.00;;;;;;5095443;28;20048;-81
2022/08/28 10:30:12;;;;;;;0.00;0.00;;;19.90;95.20;;;;;;4997948;28;20526;-80
2022/08/28 10:33:01;;;;;;;0.03;0.00;;;20.30;95.50;;;;;;4982275;28;20058;-81
2022/08/28 10:35:56;;;;;;;0.00;0.00;;;20.70;95.60;;;;;;4981862;28;20088;-80
2022/08/28 10:38:36;;;;;;;;;;;21.10;95.30;;;;;;5014575;28;20060;-81
2022/08/28 10:41:08;;;;;;;0.00;0.00;;;21.50;93.90;;;;;;4997921;28;20328;-81
2022/08/28 10:43:42;;;;;;;0.00;0.00;;;21.90;94.60;;;;;;5014002;28;20509;-81
2022/08/28 10:46:19;;;;;;;0.00;0.00;;;21.90;91.10;;;;;;5014060;28;20050;-81
2022/08/28 10:48:47;;;;;;;0.00;0.00;;;21.80;92.30;;;;;;5013756;28;20042;-82
2022/08/28 10:51:24;;;;;;;0.10;0.00;;;21.70;92.70;;;;;;4981032;28;20058;-81
2022/08/28 10:53:56;;;;;;;0.00;0.00;;;21.50;91.50;;;;;;5013977;28;20054;-81
2022/08/28 10:56:29;;;;;;;0.00;0.00;;;21.20;90.90;;;;;;4982050;28;20132;-81
2022/08/28 10:58:57;;;;;;;0.00;0.00;;;21.20;92.30;;;;;;4981025;28;20053;-81
2022/08/28 11:01:37;;;;;;;0.20;0.08;;;21.30;92.90;;;;;;4997224;28;20195;-81
2022/08/28 11:04:09;;;;;;;0.00;0.00;;;21.60;92.00;;;;;;4981332;28;20056;-81
2022/08/28 11:06:51;;;;;;;0.15;0.03;;;21.90;91.80;;;;;;5088225;28;20100;-81
2022/08/28 11:09:29;;;;;;;0.00;0.00;;;22.30;91.70;;;;;;5094173;28;20479;-81
2022/08/28 11:11:59;;;;;;;0.63;0.10;;;22.60;90.80;;;;;;5077625;28;20127;-81
2022/08/28 11:14:37;;;;;;;0.85;0.30;;;22.80;89.50;;;;;;5077236;28;20059;-81
2022/08/28 11:17:29;;;;;;;0.00;0.00;;;22.50;88.00;;;;;;5077738;28;20476;-82
2022/08/28 11:20:15;;;;;;;0.10;0.10;;;22.10;88.80;;;;;;5094137;28;20048;-81
2022/08/28 11:22:43;;;;;;;0.00;0.00;;;21.80;91.30;;;;;;5095027;28;20091;-81
2022/08/28 11:25:47;;;;;;;0.22;0.22;;;21.80;90.50;;;;;;5077572;28;20135;-82
2022/08/28 11:28:16;;;;;;;0.00;0.00;;;22.10;90.50;;;;;;4997041;28;20049;-81
2022/08/28 11:30:47;;;;;;;0.10;0.10;;;22.40;89.40;;;;;;4980745;28;20057;-81
2022/08/28 11:33:34;;;;;;;0.20;0.20;;;22.70;88.10;;;;;;5013215;28;20081;-81
2022/08/28 11:36:00;;;;;;;0.28;0.10;;;23.20;88.00;;;;;;4996524;28;20081;-81
2022/08/28 11:38:52;;;;;;;0.00;0.00;;;23.30;88.30;;;;;;5012803;28;20559;-81
2022/08/28 11:41:29;;;;;;;0.03;0.03;;;22.90;83.40;;;;;;4973951;28;20143;-80
2022/08/28 11:44:13;;;;;;;0.00;0.00;;;22.50;85.00;;;;;;4973934;28;20149;-81
2022/08/28 11:46:50;;;;;;;0.03;0.00;;;22.20;85.20;;;;;;4973953;28;20062;-81
2022/08/28 11:49:30;;;;;;;2.05;0.00;;;22.30;87.00;;;;;;4973916;28;20061;-81
2022/08/28 11:52:14;;;;;;;0.43;0.40;;;22.60;87.10;;;;;;4957549;28;20058;-81
2022/08/28 11:55:14;;;;;;;0.00;0.00;;;22.90;89.40;;;;;;4957800;28;20057;-81
2022/08/28 11:57:52;;;;;;;0.00;0.00;;;23.40;87.00;;;;;;4973836;28;20050;-82
2022/08/28 12:00:27;;;;;;;0.45;0.20;;;23.70;87.40;;;;;;4974464;28;20058;-81
2022/08/28 12:03:26;;;;;;;0.00;0.00;;;23.40;82.70;;;;;;4941698;28;20085;-81
2022/08/28 12:05:55;;;;;;;0.00;0.00;;;22.90;84.60;;;;;;5036323;28;20053;-80
2022/08/28 12:08:57;;;;;;;0.10;0.10;;;22.60;82.20;;;;;;5051955;28;20647;-81
2022/08/28 12:11:38;;;;;;;0.00;0.00;;;22.20;83.80;;;;;;5035221;28;20053;-81
2022/08/28 12:14:30;;;;;;;0.00;0.00;;;22.00;83.80;;;;;;5019311;28;20056;-81
2022/08/28 12:17:15;;;;;;;0.00;0.00;;;22.10;86.30;;;;;;5036001;28;20505;-80
2022/08/28 12:19:57;;;;;;;0.00;0.00;;;22.50;86.50;;;;;;5076841;28;20047;-80
2022/08/28 12:22:39;;;;;;;0.00;0.00;;;22.90;84.00;;;;;;5076648;28;20134;-80
2022/08/28 12:25:14;;;;;;;0.08;0.08;;;23.30;84.20;;;;;;5083109;28;20055;-81
2022/08/28 12:27:40;;;;;;;0.05;0.05;;;23.30;84.60;;;;;;5096009;28;20051;-81
2022/08/28 12:30:06;;;;;;;0.00;0.00;;;23.20;83.30;;;;;;5088875;28;20089;-80
2022/08/28 12:32:49;;;;;;;0.00;0.00;;;22.80;81.80;;;;;;5092835;28;20047;-80
2022/08/28 12:35:20;;;;;;;0.00;0.00;;;22.40;83.10;;;;;;5074917;28;20078;-81
2022/08/28 12:37:49;;;;;;;0.25;0.20;;;22.20;84.40;;;;;;5092701;28;20056;-80
2022/08/28 12:40:28;;;;;;;0.00;0.00;;;22.00;83.90;;;;;;5076180;28;20046;-81
2022/08/28 12:42:56;;;;;;;0.90;0.30;;;21.70;83.60;;;;;;5093060;28;20201;-80
2022/08/28 12:45:30;;;;;;;0.20;0.10;;;21.90;81.70;;;;;;5076046;28;20475;-80
2022/08/28 12:48:02;;;;;;;0.00;0.00;;;22.10;80.40;;;;;;5076007;28;20048;-81
2022/08/28 12:50:35;;;;;;;0.15;0.10;;;22.50;81.90;;;;;;5093354;28;20044;-80
2022/08/28 12:53:10;;;;;;;0.03;0.03;;;22.90;80.00;;;;;;5092962;28;20046;-81
2022/08/28 12:55:39;;;;;;;0.00;0.00;;;23.20;79.90;;;;;;5092977;28;20135;-81
2022/08/28 12:58:32;;;;;;;0.05;0.05;;;23.40;77.30;;;;;;5075901;28;21070;-81
2022/08/28 13:01:02;;;;;;;0.00;0.00;;;23.10;77.00;;;;;;5079286;28;20048;-81
2022/08/28 13:03:28;;;;;;;0.00;0.00;;;22.90;77.20;;;;;;5097361;28;20135;-80
2022/08/28 13:06:03;;;;;;;0.00;0.00;;;22.80;76.80;;;;;;5080148;28;20087;-81
2022/08/28 13:08:30;;;;;;;0.00;0.00;;;23.00;79.90;;;;;;5096702;28;20098;-80
2022/08/28 13:10:57;;;;;;;1.17;0.10;;;22.90;76.20;;;;;;5080092;28;20059;-80
2022/08/28 13:13:58;;;;;;;2.90;0.22;;;22.80;76.40;;;;;;5096862;28;20048;-80
2022/08/28 13:16:42;;;;;;;2.42;0.40;;;22.70;75.50;;;;;;5001381;28;20053;-80